sensor_id;sensor_type;location;lat;lon;timestamp;pressure;altitude;pressure_sealevel;temperature;humidity
58879;BME280;44660;42.664;23.266;2022-07-31T00:01:22;94384.56;;;20.84;72.40
58879;BME280;44660;42.664;23.266;2022-07-31T00:03:48;94382.97;;;20.83;72.18
58879;BME280;44660;42.664;23.266;2022-07-31T00:06:13;94371.19;;;20.79;71.97
58879;BME280;44660;42.664;23.266;2022-07-31T00:08:39;94372.63;;;20.77;72.62
58879;BME280;44660;42.664;23.266;2022-07-31T00:11:04;94370.22;;;20.75;73.02
58879;BME280;44660;42.664;23.266;2022-07-31T00:13:29;94364.13;;;20.69;72.22
58879;BME280;44660;42.664;23.266;2022-07-31T00:15:55;94361.69;;;20.59;72.10
58879;BME280;44660;42.664;23.266;2022-07-31T00:18:20;94376.56;;;20.70;71.81
58879;BME280;44660;42.664;23.266;2022-07-31T00:20:46;94366.91;;;20.55;71.77
58879;BME280;44660;42.664;23.266;2022-07-31T00:23:12;94390.97;;;20.66;71.36
58879;BME280;44660;42.664;23.266;2022-07-31T00:25:38;94396.47;;;20.61;71.20
58879;BME280;44660;42.664;23.266;2022-07-31T00:28:05;94399.94;;;20.52;72.15
58879;BME280;44660;42.664;23.266;2022-07-31T00:30:32;94394.69;;;20.47;71.70
58879;BME280;44660;42.664;23.266;2022-07-31T00:32:57;94389.28;;;20.47;71.08
58879;BME280;44660;42.664;23.266;2022-07-31T00:35:23;94380.63;;;20.36;71.47
58879;BME280;44660;42.664;23.266;2022-07-31T00:37:48;94390.63;;;20.36;71.95
58879;BME280;44660;42.664;23.266;2022-07-31T00:40:15;94398.38;;;20.29;71.84
58879;BME280;44660;42.664;23.266;2022-07-31T00:42:41;94394.31;;;20.17;71.80
58879;BME280;44660;42.664;23.266;2022-07-31T00:45:08;94411.50;;;20.21;71.80
58879;BME280;44660;42.664;23.266;2022-07-31T00:47:34;94415.13;;;20.17;72.12
58879;BME280;44660;42.664;23.266;2022-07-31T00:50:00;94406.84;;;20.13;72.07
58879;BME280;44660;42.664;23.266;2022-07-31T00:52:25;94406.09;;;19.99;72.83
58879;BME280;44660;42.664;23.266;2022-07-31T00:54:51;94411.44;;;19.76;73.40
58879;BME280;44660;42.664;23.266;2022-07-31T00:57:16;94406.75;;;19.68;73.40
58879;BME280;44660;42.664;23.266;2022-07-31T00:59:42;94389.38;;;19.60;73.18
58879;BME280;44660;42.664;23.266;2022-07-31T01:02:08;94378.03;;;19.49;73.35
58879;BME280;44660;42.664;23.266;2022-07-31T01:04:34;94404.28;;;19.57;73.47
58879;BME280;44660;42.664;23.266;2022-07-31T01:06:59;94400.09;;;19.51;73.53
58879;BME280;44660;42.664;23.266;2022-07-31T01:09:27;94416.47;;;19.55;73.40
58879;BME280;44660;42.664;23.266;2022-07-31T01:12:01;94411.09;;;19.41;74.16
58879;BME280;44660;42.664;23.266;2022-07-31T01:14:33;94396.22;;;19.30;74.23
58879;BME280;44660;42.664;23.266;2022-07-31T01:17:00;94408.91;;;19.43;74.45
58879;BME280;44660;42.664;23.266;2022-07-31T01:19:39;94404.59;;;19.42;73.89
58879;BME280;44660;42.664;23.266;2022-07-31T01:31:02;94385.97;;;19.04;74.20
58879;BME280;44660;42.664;23.266;2022-07-31T01:33:35;94396.53;;;19.14;74.65
58879;BME280;44660;42.664;23.266;2022-07-31T01:36:12;94394.66;;;19.15;74.80
58879;BME280;44660;42.664;23.266;2022-07-31T01:38:43;94418.09;;;19.28;74.91
58879;BME280;44660;42.664;23.266;2022-07-31T01:41:12;94411.91;;;19.28;74.80
58879;BME280;44660;42.664;23.266;2022-07-31T01:43:40;94389.34;;;19.23;75.62
58879;BME280;44660;42.664;23.266;2022-07-31T01:46:09;94392.94;;;19.33;75.78
58879;BME280;44660;42.664;23.266;2022-07-31T01:48:37;94401.94;;;19.28;75.26
58879;BME280;44660;42.664;23.266;2022-07-31T01:51:05;94393.53;;;19.30;75.78
58879;BME280;44660;42.664;23.266;2022-07-31T01:53:33;94408.22;;;19.23;75.65
58879;BME280;44660;42.664;23.266;2022-07-31T01:56:01;94401.63;;;19.16;75.42
58879;BME280;44660;42.664;23.266;2022-07-31T01:58:29;94403.13;;;19.08;75.13
58879;BME280;44660;42.664;23.266;2022-07-31T02:00:57;94408.72;;;19.12;75.23
58879;BME280;44660;42.664;23.266;2022-07-31T02:03:24;94414.91;;;19.12;74.84
58879;BME280;44660;42.664;23.266;2022-07-31T02:05:51;94384.44;;;18.84;74.99
58879;BME280;44660;42.664;23.266;2022-07-31T02:08:17;94403.44;;;19.06;74.70
58879;BME280;44660;42.664;23.266;2022-07-31T02:10:44;94411.31;;;19.17;75.21
58879;BME280;44660;42.664;23.266;2022-07-31T02:13:12;94394.16;;;19.13;75.34
58879;BME280;44660;42.664;23.266;2022-07-31T02:15:40;94415.91;;;19.16;74.97
58879;BME280;44660;42.664;23.266;2022-07-31T02:18:06;94414.91;;;19.12;74.83
58879;BME280;44660;42.664;23.266;2022-07-31T02:20:33;94411.31;;;19.17;75.35
58879;BME280;44660;42.664;23.266;2022-07-31T02:23:00;94393.97;;;19.09;75.16
58879;BME280;44660;42.664;23.266;2022-07-31T02:25:26;94408.31;;;19.18;74.33
58879;BME280;44660;42.664;23.266;2022-07-31T02:27:54;94394.94;;;19.13;74.54
58879;BME280;44660;42.664;23.266;2022-07-31T02:30:22;94408.94;;;19.15;73.95
58879;BME280;44660;42.664;23.266;2022-07-31T02:32:48;94415.41;;;19.14;73.15
58879;BME280;44660;42.664;23.266;2022-07-31T02:35:16;94405.94;;;19.03;73.86
58879;BME280;44660;42.664;23.266;2022-07-31T02:37:43;94400.75;;;18.92;73.71
58879;BME280;44660;42.664;23.266;2022-07-31T02:40:10;94401.53;;;18.93;73.79
58879;BME280;44660;42.664;23.266;2022-07-31T02:42:39;94369.97;;;18.66;74.79
58879;BME280;44660;42.664;23.266;2022-07-31T02:45:07;94427.44;;;18.89;75.91
58879;BME280;44660;42.664;23.266;2022-07-31T02:47:33;94425.06;;;18.87;75.78
58879;BME280;44660;42.664;23.266;2022-07-31T02:50:01;94359.28;;;18.47;75.90
58879;BME280;44660;42.664;23.266;2022-07-31T02:52:27;94407.66;;;18.66;76.06
58879;BME280;44660;42.664;23.266;2022-07-31T02:54:53;94424.34;;;18.82;76.00
58879;BME280;44660;42.664;23.266;2022-07-31T02:57:19;94426.84;;;18.78;76.45
58879;BME280;44660;42.664;23.266;2022-07-31T02:59:45;94422.09;;;18.56;76.02
58879;BME280;44660;42.664;23.266;2022-07-31T03:02:10;94419.63;;;18.59;76.18
58879;BME280;44660;42.664;23.266;2022-07-31T03:04:36;94424.41;;;18.63;75.73
58879;BME280;44660;42.664;23.266;2022-07-31T03:07:01;94419.22;;;18.66;75.91
58879;BME280;44660;42.664;23.266;2022-07-31T03:09:27;94403.03;;;18.52;75.88
58879;BME280;44660;42.664;23.266;2022-07-31T03:11:55;94381.31;;;18.35;75.90
58879;BME280;44660;42.664;23.266;2022-07-31T03:14:21;94428.22;;;18.62;75.88
58879;BME280;44660;42.664;23.266;2022-07-31T03:16:48;94429.72;;;18.68;75.48
58879;BME280;44660;42.664;23.266;2022-07-31T03:19:15;94433.63;;;18.75;75.54
58879;BME280;44660;42.664;23.266;2022-07-31T03:21:41;94435.19;;;18.76;76.29
58879;BME280;44660;42.664;23.266;2022-07-31T03:24:07;94428.22;;;18.75;76.36
58879;BME280;44660;42.664;23.266;2022-07-31T03:26:34;94435.53;;;18.89;75.66
58879;BME280;44660;42.664;23.266;2022-07-31T03:29:00;94438.66;;;18.96;75.57
58879;BME280;44660;42.664;23.266;2022-07-31T03:31:25;94435.56;;;19.03;75.29
58879;BME280;44660;42.664;23.266;2022-07-31T03:33:51;94447.94;;;19.04;74.80
58879;BME280;44660;42.664;23.266;2022-07-31T03:36:16;94435.97;;;18.96;74.24
58879;BME280;44660;42.664;23.266;2022-07-31T03:38:42;94433.16;;;19.01;74.07
58879;BME280;44660;42.664;23.266;2022-07-31T03:41:08;94430.78;;;19.00;74.58
58879;BME280;44660;42.664;23.266;2022-07-31T03:43:34;94443.44;;;19.13;73.85
58879;BME280;44660;42.664;23.266;2022-07-31T03:46:02;94410.06;;;18.81;73.46
58879;BME280;44660;42.664;23.266;2022-07-31T03:48:29;94452.03;;;19.01;73.41
58879;BME280;44660;42.664;23.266;2022-07-31T03:50:55;94439.34;;;19.02;73.19
58879;BME280;44660;42.664;23.266;2022-07-31T03:53:22;94397.59;;;18.71;73.01
58879;BME280;44660;42.664;23.266;2022-07-31T03:55:48;94451.03;;;18.97;73.51
58879;BME280;44660;42.664;23.266;2022-07-31T03:58:14;94436.31;;;18.75;73.60
58879;BME280;44660;42.664;23.266;2022-07-31T04:00:42;94449.91;;;18.84;73.69
58879;BME280;44660;42.664;23.266;2022-07-31T04:03:11;94455.75;;;18.86;73.85
58879;BME280;44660;42.664;23.266;2022-07-31T04:05:38;94460.31;;;18.91;74.69
58879;BME280;44660;42.664;23.266;2022-07-31T04:08:04;94460.06;;;18.87;75.15
58879;BME280;44660;42.664;23.266;2022-07-31T04:10:30;94456.84;;;18.85;75.30
58879;BME280;44660;42.664;23.266;2022-07-31T04:12:55;94462.50;;;18.70;75.47
58879;BME280;44660;42.664;23.266;2022-07-31T04:15:21;94465.16;;;18.56;76.34
58879;BME280;44660;42.664;23.266;2022-07-31T04:17:46;94458.31;;;18.64;75.96
58879;BME280;44660;42.664;23.266;2022-07-31T04:20:12;94468.50;;;18.67;75.64
58879;BME280;44660;42.664;23.266;2022-07-31T04:22:37;94463.13;;;18.67;76.05
58879;BME280;44660;42.664;23.266;2022-07-31T04:25:06;94454.53;;;18.65;76.03
58879;BME280;44660;42.664;23.266;2022-07-31T04:27:34;94459.16;;;18.78;76.60
58879;BME280;44660;42.664;23.266;2022-07-31T04:30:00;94456.59;;;18.87;75.99
58879;BME280;44660;42.664;23.266;2022-07-31T04:32:25;94451.63;;;18.94;75.86
58879;BME280;44660;42.664;23.266;2022-07-31T04:34:50;94460.81;;;19.07;75.35
58879;BME280;44660;42.664;23.266;2022-07-31T04:37:16;94450.63;;;19.18;74.75
58879;BME280;44660;42.664;23.266;2022-07-31T04:39:42;94433.06;;;19.06;74.16
58879;BME280;44660;42.664;23.266;2022-07-31T04:42:07;94453.22;;;19.37;73.75
58879;BME280;44660;42.664;23.266;2022-07-31T04:44:33;94381.69;;;19.03;73.60
58879;BME280;44660;42.664;23.266;2022-07-31T04:47:00;94455.13;;;19.50;73.53
58879;BME280;44660;42.664;23.266;2022-07-31T04:49:26;94449.63;;;19.55;73.06
58879;BME280;44660;42.664;23.266;2022-07-31T04:51:51;94428.34;;;19.40;73.21
58879;BME280;44660;42.664;23.266;2022-07-31T04:54:17;94446.84;;;19.61;72.65
58879;BME280;44660;42.664;23.266;2022-07-31T04:56:42;94454.00;;;19.51;72.97
58879;BME280;44660;42.664;23.266;2022-07-31T04:59:13;94458.00;;;19.54;72.97
58879;BME280;44660;42.664;23.266;2022-07-31T05:01:39;94465.19;;;19.58;72.51
58879;BME280;44660;42.664;23.266;2022-07-31T05:04:06;94463.22;;;19.50;73.31
58879;BME280;44660;42.664;23.266;2022-07-31T05:06:58;94468.19;;;19.71;72.71
58879;BME280;44660;42.664;23.266;2022-07-31T05:09:23;94420.88;;;19.37;72.57
58879;BME280;44660;42.664;23.266;2022-07-31T05:11:50;94445.22;;;19.60;72.54
58879;BME280;44660;42.664;23.266;2022-07-31T05:14:17;94454.19;;;19.69;72.09
58879;BME280;44660;42.664;23.266;2022-07-31T05:16:43;94467.25;;;19.89;71.48
58879;BME280;44660;42.664;23.266;2022-07-31T05:19:08;94466.56;;;19.98;70.85
58879;BME280;44660;42.664;23.266;2022-07-31T05:21:34;94441.00;;;19.81;70.64
58879;BME280;44660;42.664;23.266;2022-07-31T05:24:00;94448.47;;;19.98;70.78
58879;BME280;44660;42.664;23.266;2022-07-31T05:26:26;94468.53;;;20.06;70.29
58879;BME280;44660;42.664;23.266;2022-07-31T05:28:54;94468.91;;;20.13;70.30
58879;BME280;44660;42.664;23.266;2022-07-31T05:31:20;94454.34;;;20.00;70.30
58879;BME280;44660;42.664;23.266;2022-07-31T05:33:47;94461.13;;;20.12;69.87
58879;BME280;44660;42.664;23.266;2022-07-31T05:36:14;94435.97;;;20.02;69.65
58879;BME280;44660;42.664;23.266;2022-07-31T05:38:39;94466.72;;;20.15;69.44
58879;BME280;44660;42.664;23.266;2022-07-31T05:41:05;94453.03;;;20.12;68.91
58879;BME280;44660;42.664;23.266;2022-07-31T05:43:31;94455.59;;;20.17;69.36
58879;BME280;44660;42.664;23.266;2022-07-31T05:45:57;94459.78;;;20.23;69.00
58879;BME280;44660;42.664;23.266;2022-07-31T05:48:23;94467.63;;;20.33;68.62
58879;BME280;44660;42.664;23.266;2022-07-31T05:50:49;94459.97;;;20.49;68.85
58879;BME280;44660;42.664;23.266;2022-07-31T05:53:15;94450.88;;;20.68;68.27
58879;BME280;44660;42.664;23.266;2022-07-31T05:55:41;94450.16;;;20.76;67.43
58879;BME280;44660;42.664;23.266;2022-07-31T05:58:07;94447.94;;;20.78;66.15
58879;BME280;44660;42.664;23.266;2022-07-31T06:00:33;94456.75;;;20.93;65.60
58879;BME280;44660;42.664;23.266;2022-07-31T06:02:59;94465.69;;;21.02;65.77
58879;BME280;44660;42.664;23.266;2022-07-31T06:05:28;94450.53;;;21.24;64.52
58879;BME280;44660;42.664;23.266;2022-07-31T06:07:57;94459.16;;;21.43;64.89
58879;BME280;44660;42.664;23.266;2022-07-31T06:10:24;94454.59;;;21.52;63.86
58879;BME280;44660;42.664;23.266;2022-07-31T06:12:49;94445.44;;;21.62;63.26
58879;BME280;44660;42.664;23.266;2022-07-31T06:15:15;94458.34;;;21.74;62.50
58879;BME280;44660;42.664;23.266;2022-07-31T06:17:41;94468.72;;;21.90;62.33
58879;BME280;44660;42.664;23.266;2022-07-31T06:20:08;94451.22;;;22.22;62.28
58879;BME280;44660;42.664;23.266;2022-07-31T06:22:34;94436.75;;;22.44;61.61
58879;BME280;44660;42.664;23.266;2022-07-31T06:25:00;94423.03;;;22.49;60.52
58879;BME280;44660;42.664;23.266;2022-07-31T06:27:25;94445.28;;;22.81;60.04
58879;BME280;44660;42.664;23.266;2022-07-31T06:29:51;94408.00;;;22.70;59.87
58879;BME280;44660;42.664;23.266;2022-07-31T06:32:17;94460.69;;;22.98;59.15
58879;BME280;44660;42.664;23.266;2022-07-31T06:34:42;94457.78;;;23.12;58.84
58879;BME280;44660;42.664;23.266;2022-07-31T06:37:09;94451.56;;;23.21;58.66
58879;BME280;44660;42.664;23.266;2022-07-31T06:39:34;94451.38;;;23.26;58.69
58879;BME280;44660;42.664;23.266;2022-07-31T06:42:00;94440.50;;;23.35;58.86
58879;BME280;44660;42.664;23.266;2022-07-31T06:44:25;94445.06;;;23.52;59.13
58879;BME280;44660;42.664;23.266;2022-07-31T06:46:51;94441.34;;;23.56;58.62
58879;BME280;44660;42.664;23.266;2022-07-31T06:49:17;94444.16;;;23.69;57.43
58879;BME280;44660;42.664;23.266;2022-07-31T06:51:43;94431.16;;;23.53;57.89
58879;BME280;44660;42.664;23.266;2022-07-31T06:54:09;94454.84;;;23.65;57.88
58879;BME280;44660;42.664;23.266;2022-07-31T06:56:36;94457.53;;;23.74;58.62
58879;BME280;44660;42.664;23.266;2022-07-31T06:59:02;94453.06;;;23.69;57.70
58879;BME280;44660;42.664;23.266;2022-07-31T07:01:28;94454.22;;;23.68;57.55
58879;BME280;44660;42.664;23.266;2022-07-31T07:03:54;94455.81;;;23.90;57.46
58879;BME280;44660;42.664;23.266;2022-07-31T07:06:20;94459.81;;;23.93;57.13
58879;BME280;44660;42.664;23.266;2022-07-31T07:08:46;94449.03;;;23.75;57.23
58879;BME280;44660;42.664;23.266;2022-07-31T07:11:11;94461.88;;;23.66;57.35
58879;BME280;44660;42.664;23.266;2022-07-31T07:13:37;94476.75;;;23.60;57.91
58879;BME280;44660;42.664;23.266;2022-07-31T07:16:02;94468.31;;;23.53;58.18
58879;BME280;44660;42.664;23.266;2022-07-31T07:18:28;94470.22;;;23.61;58.32
58879;BME280;44660;42.664;23.266;2022-07-31T07:20:53;94451.69;;;23.63;58.11
58879;BME280;44660;42.664;23.266;2022-07-31T07:23:20;94468.63;;;23.60;58.78
58879;BME280;44660;42.664;23.266;2022-07-31T07:25:45;94465.34;;;23.45;59.25
58879;BME280;44660;42.664;23.266;2022-07-31T07:28:12;94462.63;;;23.45;59.16
58879;BME280;44660;42.664;23.266;2022-07-31T07:30:37;94467.53;;;23.52;58.70
58879;BME280;44660;42.664;23.266;2022-07-31T07:33:04;94471.56;;;23.46;59.32
58879;BME280;44660;42.664;23.266;2022-07-31T07:35:30;94440.09;;;23.06;59.66
58879;BME280;44660;42.664;23.266;2022-07-31T07:37:55;94481.06;;;23.22;59.82
58879;BME280;44660;42.664;23.266;2022-07-31T07:40:21;94462.94;;;22.96;60.06
58879;BME280;44660;42.664;23.266;2022-07-31T07:42:47;94473.78;;;22.96;60.33
58879;BME280;44660;42.664;23.266;2022-07-31T07:45:13;94462.00;;;22.92;61.13
58879;BME280;44660;42.664;23.266;2022-07-31T07:47:39;94448.06;;;23.11;60.14
58879;BME280;44660;42.664;23.266;2022-07-31T07:50:06;94436.56;;;23.14;59.89
58879;BME280;44660;42.664;23.266;2022-07-31T07:52:32;94456.63;;;23.31;59.26
58879;BME280;44660;42.664;23.266;2022-07-31T07:54:58;94434.72;;;23.36;59.13
58879;BME280;44660;42.664;23.266;2022-07-31T07:57:23;94465.00;;;23.47;59.38
58879;BME280;44660;42.664;23.266;2022-07-31T07:59:48;94462.44;;;23.51;59.33
58879;BME280;44660;42.664;23.266;2022-07-31T08:02:15;94463.56;;;23.50;59.26
58879;BME280;44660;42.664;23.266;2022-07-31T08:04:41;94475.63;;;23.61;59.67
58879;BME280;44660;42.664;23.266;2022-07-31T08:07:06;94472.91;;;23.61;59.06
58879;BME280;44660;42.664;23.266;2022-07-31T08:09:32;94456.44;;;23.36;59.38
58879;BME280;44660;42.664;23.266;2022-07-31T08:11:59;94476.25;;;23.28;59.67
58879;BME280;44660;42.664;23.266;2022-07-31T08:14:24;94460.03;;;23.02;60.27
58879;BME280;44660;42.664;23.266;2022-07-31T08:16:51;94493.66;;;23.09;60.21
58879;BME280;44660;42.664;23.266;2022-07-31T08:19:16;94489.13;;;22.75;61.32
58879;BME280;44660;42.664;23.266;2022-07-31T08:21:42;94494.34;;;22.89;61.04
58879;BME280;44660;42.664;23.266;2022-07-31T08:24:08;94501.38;;;22.90;60.94
58879;BME280;44660;42.664;23.266;2022-07-31T08:26:35;94485.63;;;22.83;60.55
58879;BME280;44660;42.664;23.266;2022-07-31T08:29:20;94495.31;;;22.84;60.74
58879;BME280;44660;42.664;23.266;2022-07-31T08:31:45;94491.03;;;22.74;61.46
58879;BME280;44660;42.664;23.266;2022-07-31T08:34:10;94495.81;;;22.86;60.84
58879;BME280;44660;42.664;23.266;2022-07-31T08:36:37;94496.59;;;22.87;61.01
58879;BME280;44660;42.664;23.266;2022-07-31T08:39:03;94492.31;;;22.77;61.20
58879;BME280;44660;42.664;23.266;2022-07-31T08:41:29;94480.50;;;22.81;60.98
58879;BME280;44660;42.664;23.266;2022-07-31T08:43:57;94490.53;;;22.90;61.22
58879;BME280;44660;42.664;23.266;2022-07-31T08:46:22;94474.09;;;22.95;60.91
58879;BME280;44660;42.664;23.266;2022-07-31T08:48:49;94503.56;;;23.05;60.29
58879;BME280;44660;42.664;23.266;2022-07-31T08:51:17;94495.59;;;23.18;59.53
58879;BME280;44660;42.664;23.266;2022-07-31T08:53:43;94490.16;;;23.26;58.82
58879;BME280;44660;42.664;23.266;2022-07-31T08:56:09;94315.38;;;22.11;59.34
58879;BME280;44660;42.664;23.266;2022-07-31T08:58:35;94475.00;;;23.25;58.83
58879;BME280;44660;42.664;23.266;2022-07-31T09:01:01;94488.50;;;23.43;58.71
58879;BME280;44660;42.664;23.266;2022-07-31T09:03:27;94491.91;;;23.61;58.68
58879;BME280;44660;42.664;23.266;2022-07-31T09:05:52;94494.38;;;23.45;58.64
58879;BME280;44660;42.664;23.266;2022-07-31T09:08:18;94465.91;;;23.30;58.70
58879;BME280;44660;42.664;23.266;2022-07-31T09:10:43;94483.47;;;23.24;58.83
58879;BME280;44660;42.664;23.266;2022-07-31T09:13:14;94497.03;;;23.54;58.83
58879;BME280;44660;42.664;23.266;2022-07-31T09:15:40;94487.69;;;23.42;58.26
58879;BME280;44660;42.664;23.266;2022-07-31T09:18:19;94489.19;;;23.61;57.82
58879;BME280;44660;42.664;23.266;2022-07-31T09:21:12;94491.69;;;23.75;56.83
58879;BME280;44660;42.664;23.266;2022-07-31T09:23:45;94480.09;;;23.66;57.05
58879;BME280;44660;42.664;23.266;2022-07-31T09:26:14;94444.56;;;23.79;56.40
58879;BME280;44660;42.664;23.266;2022-07-31T09:28:44;94490.91;;;24.46;55.24
58879;BME280;44660;42.664;23.266;2022-07-31T09:31:12;94478.00;;;24.65;54.93
58879;BME280;44660;42.664;23.266;2022-07-31T09:33:44;94476.25;;;24.60;54.23
58879;BME280;44660;42.664;23.266;2022-07-31T09:36:11;94475.84;;;24.49;51.55
58879;BME280;44660;42.664;23.266;2022-07-31T09:38:39;94483.56;;;24.47;52.34
58879;BME280;44660;42.664;23.266;2022-07-31T09:43:35;94475.66;;;24.75;52.03
58879;BME280;44660;42.664;23.266;2022-07-31T09:46:02;94465.28;;;25.02;51.86
58879;BME280;44660;42.664;23.266;2022-07-31T09:48:28;94463.75;;;25.26;51.83
58879;BME280;44660;42.664;23.266;2022-07-31T09:50:58;94471.63;;;25.40;50.72
58879;BME280;44660;42.664;23.266;2022-07-31T09:53:24;94473.69;;;25.68;50.61
58879;BME280;44660;42.664;23.266;2022-07-31T09:55:55;94471.03;;;25.96;49.60
58879;BME280;44660;42.664;23.266;2022-07-31T09:58:22;94465.81;;;25.79;49.04
58879;BME280;44660;42.664;23.266;2022-07-31T10:00:51;94468.81;;;25.61;49.74
58879;BME280;44660;42.664;23.266;2022-07-31T10:03:18;94462.31;;;25.66;49.94
58879;BME280;44660;42.664;23.266;2022-07-31T10:05:45;94457.78;;;25.82;49.66
58879;BME280;44660;42.664;23.266;2022-07-31T10:08:12;94447.94;;;25.78;50.01
58879;BME280;44660;42.664;23.266;2022-07-31T10:10:39;94446.00;;;25.78;49.21
58879;BME280;44660;42.664;23.266;2022-07-31T10:13:10;94426.81;;;25.87;49.21
58879;BME280;44660;42.664;23.266;2022-07-31T10:15:38;94435.28;;;26.10;48.56
58879;BME280;44660;42.664;23.266;2022-07-31T10:18:05;94451.88;;;26.46;47.64
58879;BME280;44660;42.664;23.266;2022-07-31T10:20:33;94447.69;;;26.77;46.53
58879;BME280;44660;42.664;23.266;2022-07-31T10:23:05;94435.31;;;26.95;46.04
58879;BME280;44660;42.664;23.266;2022-07-31T10:25:34;94438.66;;;27.04;45.45
58879;BME280;44660;42.664;23.266;2022-07-31T10:28:05;94431.34;;;26.93;46.21
58879;BME280;44660;42.664;23.266;2022-07-31T10:30:31;94430.72;;;26.99;44.80
58879;BME280;44660;42.664;23.266;2022-07-31T10:32:57;94418.50;;;27.09;44.31
58879;BME280;44660;42.664;23.266;2022-07-31T10:35:23;94418.69;;;27.16;44.19
58879;BME280;44660;42.664;23.266;2022-07-31T10:37:57;94419.41;;;26.97;44.98
58879;BME280;44660;42.664;23.266;2022-07-31T10:40:39;94384.91;;;26.73;43.82
58879;BME280;44660;42.664;23.266;2022-07-31T10:43:34;94408.41;;;27.10;43.57
58879;BME280;44660;42.664;23.266;2022-07-31T10:46:01;94400.13;;;27.22;43.69
58879;BME280;44660;42.664;23.266;2022-07-31T10:48:27;94405.94;;;27.36;43.34
58879;BME280;44660;42.664;23.266;2022-07-31T10:51:02;94403.47;;;27.63;42.82
58879;BME280;44660;42.664;23.266;2022-07-31T10:53:29;94409.41;;;27.85;42.30
58879;BME280;44660;42.664;23.266;2022-07-31T10:58:26;94401.50;;;28.15;40.87
58879;BME280;44660;42.664;23.266;2022-07-31T11:00:52;94375.31;;;28.14;40.87
58879;BME280;44660;42.664;23.266;2022-07-31T11:03:36;94398.53;;;28.05;40.59
58879;BME280;44660;42.664;23.266;2022-07-31T11:06:03;94390.63;;;28.39;40.86
58879;BME280;44660;42.664;23.266;2022-07-31T11:11:07;94387.03;;;28.34;40.26
58879;BME280;44660;42.664;23.266;2022-07-31T11:13:46;94377.53;;;28.28;41.06
58879;BME280;44660;42.664;23.266;2022-07-31T11:16:12;94376.66;;;28.44;40.27
58879;BME280;44660;42.664;23.266;2022-07-31T11:18:38;94381.41;;;28.27;40.61
58879;BME280;44660;42.664;23.266;2022-07-31T11:21:06;94372.22;;;28.35;40.72
58879;BME280;44660;42.664;23.266;2022-07-31T11:23:32;94369.78;;;28.30;40.43
58879;BME280;44660;42.664;23.266;2022-07-31T11:26:00;94369.63;;;28.23;41.13
58879;BME280;44660;42.664;23.266;2022-07-31T11:28:27;94373.44;;;28.38;41.12
58879;BME280;44660;42.664;23.266;2022-07-31T11:30:54;94364.31;;;28.30;41.32
58879;BME280;44660;42.664;23.266;2022-07-31T11:33:47;94370.78;;;28.42;41.18
58879;BME280;44660;42.664;23.266;2022-07-31T11:36:18;94367.44;;;28.72;41.12
58879;BME280;44660;42.664;23.266;2022-07-31T11:38:47;94365.22;;;28.77;40.10
58879;BME280;44660;42.664;23.266;2022-07-31T11:41:14;94366.00;;;28.78;40.22
58879;BME280;44660;42.664;23.266;2022-07-31T11:43:48;94356.63;;;28.59;40.40
58879;BME280;44660;42.664;23.266;2022-07-31T11:46:34;94356.53;;;28.52;40.03
58879;BME280;44660;42.664;23.266;2022-07-31T11:49:02;94350.03;;;28.60;40.48
58879;BME280;44660;42.664;23.266;2022-07-31T11:51:28;94354.66;;;28.56;41.15
58879;BME280;44660;42.664;23.266;2022-07-31T11:53:54;94356.81;;;28.47;40.85
58879;BME280;44660;42.664;23.266;2022-07-31T11:56:20;94355.94;;;28.43;40.68
58879;BME280;44660;42.664;23.266;2022-07-31T11:58:51;94347.25;;;28.37;40.13
58879;BME280;44660;42.664;23.266;2022-07-31T12:01:16;94328.56;;;28.39;39.90
58879;BME280;44660;42.664;23.266;2022-07-31T12:03:43;94333.38;;;28.46;39.00
58879;BME280;44660;42.664;23.266;2022-07-31T12:06:09;94316.22;;;28.49;39.28
58879;BME280;44660;42.664;23.266;2022-07-31T12:08:35;94304.88;;;28.47;38.38
58879;BME280;44660;42.664;23.266;2022-07-31T12:11:04;94324.19;;;28.58;38.83
58879;BME280;44660;42.664;23.266;2022-07-31T12:13:30;94296.84;;;28.34;39.59
58879;BME280;44660;42.664;23.266;2022-07-31T12:15:57;94329.53;;;28.70;39.38
58879;BME280;44660;42.664;23.266;2022-07-31T12:18:24;94327.63;;;28.74;39.80
58879;BME280;44660;42.664;23.266;2022-07-31T12:20:58;94315.84;;;28.70;38.99
58879;BME280;44660;42.664;23.266;2022-07-31T12:23:24;94316.91;;;28.85;38.79
58879;BME280;44660;42.664;23.266;2022-07-31T12:25:53;94290.72;;;28.64;38.42
58879;BME280;44660;42.664;23.266;2022-07-31T12:28:18;94305.69;;;28.71;38.70
58879;BME280;44660;42.664;23.266;2022-07-31T12:30:44;94295.34;;;28.60;38.75
58879;BME280;44660;42.664;23.266;2022-07-31T12:33:11;94308.31;;;28.63;38.92
58879;BME280;44660;42.664;23.266;2022-07-31T12:35:38;94301.81;;;28.72;38.47
58879;BME280;44660;42.664;23.266;2022-07-31T12:38:04;94291.63;;;28.69;38.58
58879;BME280;44660;42.664;23.266;2022-07-31T12:40:29;94292.97;;;28.59;38.37
58879;BME280;44660;42.664;23.266;2022-07-31T12:42:55;94296.94;;;28.61;38.71
58879;BME280;44660;42.664;23.266;2022-07-31T12:45:37;94300.19;;;28.47;38.14
58879;BME280;44660;42.664;23.266;2022-07-31T12:48:04;94303.16;;;28.39;38.24
58879;BME280;44660;42.664;23.266;2022-07-31T12:50:31;94282.25;;;28.27;38.62
58879;BME280;44660;42.664;23.266;2022-07-31T12:53:02;94260.03;;;28.28;37.75
58879;BME280;44660;42.664;23.266;2022-07-31T12:55:30;94293.34;;;28.57;37.76
58879;BME280;44660;42.664;23.266;2022-07-31T12:57:55;94291.63;;;28.49;37.28
58879;BME280;44660;42.664;23.266;2022-07-31T13:00:23;94290.31;;;28.39;37.05
58879;BME280;44660;42.664;23.266;2022-07-31T13:02:53;94294.66;;;28.44;36.97
58879;BME280;44660;42.664;23.266;2022-07-31T13:05:20;94281.44;;;28.46;36.61
58879;BME280;44660;42.664;23.266;2022-07-31T13:07:47;94278.53;;;28.58;37.52